Time;durP1;ratioP1;P1;durP2;ratioP2;P2;SDS_P1;SDS_P2;PMS_P1;PMS_P2;Temp;Humidity;BMP_temperature;BMP_pressure;BME280_temperature;BME280_humidity;BME280_pressure;Samples;Min_cycle;Max_cycle;Signal;HPM_P1;HPM_P2
2022/06/26 00:02:07;;;;;;;1.80;1.70;;;25.00;92.50;;;;;;5034654;28;20195;-62
2022/06/26 00:04:35;;;;;;;1.45;1.45;;;25.00;92.50;;;;;;5032731;28;20249;-61
2022/06/26 00:07:03;;;;;;;1.60;1.50;;;25.00;92.90;;;;;;5035214;28;20206;-62
2022/06/26 00:09:31;;;;;;;1.50;1.50;;;25.00;92.60;;;;;;5035058;28;20627;-62
2022/06/26 00:11:59;;;;;;;1.42;1.42;;;24.90;92.60;;;;;;5034962;28;20202;-61
2022/06/26 00:14:26;;;;;;;1.25;1.25;;;24.90;92.60;;;;;;5034594;28;20225;-62
2022/06/26 00:16:54;;;;;;;1.55;1.50;;;24.90;92.60;;;;;;5034447;28;20202;-61
2022/06/26 00:19:21;;;;;;;1.45;1.45;;;24.90;92.70;;;;;;5033554;28;20674;-61
2022/06/26 00:21:50;;;;;;;1.50;1.50;;;24.80;92.70;;;;;;5034317;28;20610;-61
2022/06/26 00:24:17;;;;;;;3.80;1.45;;;24.80;92.70;;;;;;5034589;28;20210;-62
2022/06/26 00:26:44;;;;;;;1.55;1.48;;;24.80;92.80;;;;;;5034078;28;20234;-61
2022/06/26 00:29:13;;;;;;;1.80;1.70;;;24.80;92.80;;;;;;5028626;28;20198;-61
2022/06/26 00:31:40;;;;;;;1.40;1.40;;;24.80;92.80;;;;;;5034707;28;20230;-61
2022/06/26 00:34:07;;;;;;;1.73;1.63;;;24.80;92.80;;;;;;5033162;28;20198;-62
2022/06/26 00:36:34;;;;;;;1.50;1.45;;;24.70;92.80;;;;;;5034714;28;20222;-61
2022/06/26 00:39:01;;;;;;;1.60;1.50;;;24.80;92.90;;;;;;5032394;28;20625;-61
2022/06/26 00:41:28;;;;;;;1.77;1.67;;;24.70;92.90;;;;;;5031374;28;20207;-62
2022/06/26 00:43:55;;;;;;;1.67;1.58;;;24.70;92.90;;;;;;5013855;28;20721;-62
2022/06/26 00:46:25;;;;;;;1.73;1.63;;;24.70;93.30;;;;;;5013287;28;20210;-62
2022/06/26 00:48:52;;;;;;;2.17;1.80;;;24.70;93.00;;;;;;5030611;28;20209;-62
2022/06/26 00:51:21;;;;;;;1.80;1.70;;;24.60;93.00;;;;;;5031655;28;20668;-62
2022/06/26 00:53:48;;;;;;;1.75;1.65;;;24.70;93.10;;;;;;5013621;28;20642;-63
2022/06/26 00:56:15;;;;;;;1.75;1.65;;;24.60;93.10;;;;;;5013765;28;20230;-63
2022/06/26 00:58:43;;;;;;;1.77;1.67;;;24.60;93.10;;;;;;5013961;28;20381;-62
2022/06/26 01:01:10;;;;;;;1.30;1.30;;;24.60;93.20;;;;;;5030820;28;20195;-61
2022/06/26 01:03:39;;;;;;;1.75;1.65;;;24.60;93.20;;;;;;5029574;28;20195;-62
2022/06/26 01:06:07;;;;;;;1.75;1.65;;;24.60;93.30;;;;;;5031110;28;20190;-61
2022/06/26 01:08:35;;;;;;;2.42;2.22;;;24.60;93.30;;;;;;5031564;28;20209;-61
2022/06/26 01:11:17;;;;;;;2.05;1.95;;;24.60;93.40;;;;;;5030246;28;20209;-61
2022/06/26 01:13:45;;;;;;;1.95;1.85;;;24.50;93.30;;;;;;5012978;28;20211;-61
2022/06/26 01:16:14;;;;;;;1.67;1.58;;;24.50;93.40;;;;;;5027182;28;20218;-60
2022/06/26 01:18:43;;;;;;;1.70;1.60;;;24.50;93.50;;;;;;5011139;28;20575;-61
2022/06/26 01:21:11;;;;;;;1.50;1.40;;;24.50;93.50;;;;;;5012898;28;20237;-61
2022/06/26 01:23:40;;;;;;;1.77;1.67;;;24.40;93.50;;;;;;5030523;28;20226;-62
2022/06/26 01:26:07;;;;;;;1.58;1.58;;;24.40;93.60;;;;;;5019168;28;20307;-62
2022/06/26 01:28:35;;;;;;;1.42;1.42;;;24.40;93.60;;;;;;5019629;28;20210;-62
2022/06/26 01:31:03;;;;;;;2.20;2.10;;;24.40;93.60;;;;;;5029909;28;20293;-61
2022/06/26 01:33:30;;;;;;;1.95;1.85;;;24.40;93.70;;;;;;5010553;28;20301;-62
2022/06/26 01:35:57;;;;;;;1.60;1.50;;;24.40;93.70;;;;;;5012606;28;20587;-62
2022/06/26 01:38:25;;;;;;;1.60;1.50;;;24.40;93.70;;;;;;5012554;28;20218;-61
2022/06/26 01:40:56;;;;;;;1.60;1.50;;;24.40;93.80;;;;;;5012754;28;20214;-61
2022/06/26 01:43:26;;;;;;;1.40;1.40;;;24.40;93.80;;;;;;5029956;28;20203;-61
2022/06/26 01:45:56;;;;;;;1.90;1.80;;;24.40;93.80;;;;;;5005898;28;20594;-61
2022/06/26 01:48:29;;;;;;;11.23;7.07;;;24.30;93.80;;;;;;5009438;28;20554;-61
2022/06/26 01:50:59;;;;;;;10.30;6.53;;;24.30;93.90;;;;;;5011141;28;20690;-61
2022/06/26 01:53:27;;;;;;;11.13;7.68;;;24.30;93.90;;;;;;5011306;28;20213;-61
2022/06/26 01:55:56;;;;;;;9.57;6.53;;;24.30;94.00;;;;;;5012150;28;20233;-61
2022/06/26 01:58:32;;;;;;;7.53;5.35;;;24.40;94.00;;;;;;5012029;28;20312;-61
2022/06/26 02:01:01;;;;;;;5.43;4.32;;;24.40;94.10;;;;;;5008698;28;20640;-61
2022/06/26 02:03:30;;;;;;;3.95;3.65;;;24.30;94.10;;;;;;5008755;28;20301;-61
2022/06/26 02:05:57;;;;;;;3.00;2.72;;;24.30;94.10;;;;;;5028713;28;20309;-61
2022/06/26 02:08:24;;;;;;;3.03;2.83;;;24.30;94.10;;;;;;5029439;28;20616;-61
2022/06/26 02:13:43;;;;;;;2.08;1.98;;;24.30;94.20;;;;;;5027222;28;20201;-60
2022/06/26 02:16:15;;;;;;;2.30;2.20;;;24.20;94.20;;;;;;5011396;28;20340;-61
2022/06/26 02:18:46;;;;;;;2.03;1.92;;;24.30;94.30;;;;;;5009854;28;20230;-61
2022/06/26 02:21:16;;;;;;;2.00;1.90;;;24.20;94.40;;;;;;5029711;28;20205;-61
2022/06/26 02:23:44;;;;;;;1.67;1.58;;;24.20;94.40;;;;;;5029991;28;20210;-61
2022/06/26 02:26:13;;;;;;;1.45;1.35;;;24.20;94.50;;;;;;5026522;28;20354;-61
2022/06/26 02:28:42;;;;;;;1.90;1.80;;;24.10;94.50;;;;;;5029643;28;20202;-61
2022/06/26 02:31:09;;;;;;;1.92;1.83;;;24.10;94.60;;;;;;5030053;28;20599;-61
2022/06/26 02:33:36;;;;;;;1.90;1.80;;;24.00;94.60;;;;;;5027853;28;20588;-61
2022/06/26 02:36:05;;;;;;;2.55;1.90;;;24.00;94.80;;;;;;5029250;28;20236;-62
2022/06/26 02:38:33;;;;;;;1.75;1.65;;;24.00;94.90;;;;;;5028315;28;20210;-62
2022/06/26 02:41:02;;;;;;;1.73;1.63;;;24.00;94.90;;;;;;5010562;28;20218;-62
2022/06/26 02:43:30;;;;;;;2.00;1.90;;;23.90;95.00;;;;;;5011004;28;20241;-62
2022/06/26 02:45:59;;;;;;;1.98;1.88;;;23.90;95.10;;;;;;5011458;28;20696;-62
2022/06/26 02:48:27;;;;;;;1.55;1.50;;;23.90;95.20;;;;;;5009589;28;20206;-62
2022/06/26 02:50:54;;;;;;;2.25;2.15;;;23.90;95.30;;;;;;5029135;28;20632;-61
2022/06/26 02:53:21;;;;;;;2.10;1.90;;;23.90;95.30;;;;;;5028490;28;20235;-61
2022/06/26 02:55:50;;;;;;;1.90;1.80;;;23.80;95.30;;;;;;5011629;28;20649;-62
2022/06/26 02:58:18;;;;;;;2.10;2.00;;;23.80;95.40;;;;;;5026932;28;20627;-62
2022/06/26 03:00:55;;;;;;;1.90;1.80;;;23.80;95.50;;;;;;5018461;28;20295;-62
2022/06/26 03:03:25;;;;;;;1.80;1.70;;;23.80;95.50;;;;;;5009206;28;20222;-62
2022/06/26 03:05:53;;;;;;;1.77;1.67;;;23.80;95.60;;;;;;5005842;28;20282;-60
2022/06/26 03:08:24;;;;;;;2.10;2.00;;;23.80;95.70;;;;;;5028946;28;20261;-60
2022/06/26 03:10:52;;;;;;;1.70;1.63;;;23.80;95.70;;;;;;5011120;28;20207;-61
2022/06/26 03:13:19;;;;;;;1.95;1.85;;;23.80;95.80;;;;;;5010714;28;20202;-62
2022/06/26 03:15:46;;;;;;;1.73;1.63;;;23.80;95.90;;;;;;5029033;28;20229;-61
2022/06/26 03:18:16;;;;;;;2.42;2.22;;;23.80;96.30;;;;;;5008476;28;20288;-62
2022/06/26 03:20:45;;;;;;;1.85;1.75;;;23.70;96.00;;;;;;5011104;28;20272;-63
2022/06/26 03:23:12;;;;;;;1.98;1.88;;;23.80;96.20;;;;;;5009370;28;20248;-62
2022/06/26 03:25:40;;;;;;;2.55;2.35;;;23.70;96.20;;;;;;5012722;28;20567;-61
2022/06/26 03:28:07;;;;;;;1.88;1.77;;;23.80;96.30;;;;;;5010524;28;20202;-62
2022/06/26 03:30:44;;;;;;;1.77;1.67;;;23.80;96.30;;;;;;5011020;28;20214;-61
2022/06/26 03:33:11;;;;;;;1.92;1.83;;;23.80;96.30;;;;;;5009130;28;20210;-62
2022/06/26 03:35:38;;;;;;;1.60;1.50;;;23.80;96.70;;;;;;5009427;28;20195;-62
2022/06/26 03:38:07;;;;;;;2.03;1.92;;;23.90;96.80;;;;;;5028198;28;20205;-61
2022/06/26 03:40:35;;;;;;;1.85;1.75;;;23.90;96.40;;;;;;5000554;28;20240;-62
2022/06/26 03:43:04;;;;;;;1.80;1.70;;;23.90;96.50;;;;;;5010148;28;20276;-62
2022/06/26 03:45:47;;;;;;;1.95;1.85;;;24.30;96.70;;;;;;4999561;28;20203;-61
2022/06/26 03:48:14;;;;;;;1.85;1.75;;;23.90;96.60;;;;;;5007307;28;20647;-61
2022/06/26 03:50:41;;;;;;;2.25;1.70;;;23.90;96.60;;;;;;5006747;28;20210;-60
2022/06/26 03:53:10;;;;;;;3.03;1.83;;;23.90;96.70;;;;;;5022806;28;20210;-59
2022/06/26 03:55:38;;;;;;;1.88;1.77;;;23.90;96.70;;;;;;5010467;28;20256;-59
2022/06/26 03:58:08;;;;;;;1.90;1.80;;;24.00;96.80;;;;;;5011051;28;20210;-60
2022/06/26 04:00:35;;;;;;;1.98;1.88;;;24.00;96.80;;;;;;5008581;28;20203;-61
2022/06/26 04:03:03;;;;;;;1.90;1.80;;;24.00;96.80;;;;;;5027361;28;20313;-61
2022/06/26 04:05:30;;;;;;;1.73;1.63;;;24.00;96.80;;;;;;5009587;28;20214;-61
2022/06/26 04:07:58;;;;;;;1.58;1.48;;;24.10;96.80;;;;;;5027252;28;20245;-60
2022/06/26 04:10:47;;;;;;;1.73;1.63;;;24.20;96.80;;;;;;5023618;28;20221;-61
2022/06/26 04:13:34;;;;;;;1.55;1.45;;;24.20;96.70;;;;;;5028507;28;20221;-61
2022/06/26 04:16:02;;;;;;;1.58;1.58;;;24.20;96.60;;;;;;5014328;28;20220;-62
2022/06/26 04:18:33;;;;;;;1.77;1.67;;;24.20;96.50;;;;;;5012466;28;20321;-62
2022/06/26 04:21:00;;;;;;;1.50;1.40;;;24.20;96.40;;;;;;5014575;28;20207;-62
2022/06/26 04:23:27;;;;;;;1.80;1.70;;;24.20;96.30;;;;;;5013875;28;20202;-60
2022/06/26 04:26:03;;;;;;;1.30;1.30;;;24.20;96.20;;;;;;5005072;28;20312;-60
2022/06/26 04:28:30;;;;;;;1.80;1.70;;;24.20;96.10;;;;;;5013702;28;20278;-60
2022/06/26 04:31:00;;;;;;;1.95;1.85;;;24.30;96.40;;;;;;5014351;28;20261;-60
2022/06/26 04:33:27;;;;;;;2.28;2.17;;;24.30;96.00;;;;;;5011720;28;20194;-61
2022/06/26 04:35:54;;;;;;;2.08;1.92;;;24.30;96.00;;;;;;5013897;28;20202;-60
2022/06/26 04:38:21;;;;;;;2.65;2.45;;;24.30;95.80;;;;;;5032075;28;20269;-60
2022/06/26 04:40:49;;;;;;;2.20;2.10;;;24.30;95.80;;;;;;5013568;28;20297;-61
2022/06/26 04:43:17;;;;;;;2.28;2.17;;;24.30;95.70;;;;;;5031601;28;20249;-62
2022/06/26 04:45:46;;;;;;;2.10;2.00;;;24.30;95.60;;;;;;5031760;28;20195;-62
2022/06/26 04:48:13;;;;;;;2.25;2.15;;;24.30;95.50;;;;;;5013799;28;20230;-62
2022/06/26 04:50:41;;;;;;;2.20;2.10;;;24.30;95.50;;;;;;5029844;28;20558;-63
2022/06/26 04:53:08;;;;;;;2.00;1.90;;;24.30;95.50;;;;;;5031567;28;20508;-62
2022/06/26 04:55:37;;;;;;;2.00;1.90;;;24.40;95.50;;;;;;5013589;28;20329;-63
2022/06/26 04:58:04;;;;;;;1.90;1.80;;;24.40;95.40;;;;;;5013624;28;20231;-63
2022/06/26 05:00:33;;;;;;;2.03;1.73;;;24.40;95.40;;;;;;5013480;28;20210;-64
2022/06/26 05:03:13;;;;;;;1.90;1.80;;;24.40;95.40;;;;;;5026353;28;20276;-63
2022/06/26 05:05:50;;;;;;;2.03;1.92;;;24.50;95.50;;;;;;5011148;28;20202;-61
2022/06/26 05:08:36;;;;;;;1.83;1.73;;;24.50;95.50;;;;;;5032157;28;20205;-60
2022/06/26 05:11:04;;;;;;;1.95;1.85;;;24.50;95.50;;;;;;5011085;28;20847;-60
2022/06/26 05:13:33;;;;;;;2.08;1.98;;;24.50;95.40;;;;;;5028821;28;20607;-62
2022/06/26 05:16:25;;;;;;;3.22;2.30;;;24.60;95.50;;;;;;5001912;28;20590;-61
2022/06/26 05:18:52;;;;;;;2.45;2.28;;;24.60;95.50;;;;;;5012508;28;20222;-62
2022/06/26 05:21:20;;;;;;;2.35;2.13;;;24.50;95.50;;;;;;5013423;28;20206;-62
2022/06/26 05:23:49;;;;;;;1.98;1.88;;;24.60;95.60;;;;;;5013086;28;20214;-62
2022/06/26 05:26:16;;;;;;;2.00;1.90;;;24.60;95.60;;;;;;5030223;28;20230;-62
2022/06/26 05:28:43;;;;;;;1.80;1.70;;;24.60;95.60;;;;;;5012444;28;20222;-62
2022/06/26 05:31:10;;;;;;;3.72;2.40;;;24.70;95.60;;;;;;5031551;28;20190;-62
2022/06/26 05:33:41;;;;;;;1.90;1.80;;;24.70;95.50;;;;;;5011123;28;20215;-62
2022/06/26 05:36:11;;;;;;;1.60;1.50;;;24.70;95.60;;;;;;5013117;28;20214;-62
2022/06/26 05:38:39;;;;;;;1.80;1.70;;;24.70;95.60;;;;;;5031183;28;20194;-62
2022/06/26 05:41:07;;;;;;;1.55;1.55;;;24.70;95.50;;;;;;5012502;28;20224;-62
2022/06/26 05:43:36;;;;;;;2.13;1.95;;;24.80;95.60;;;;;;5012659;28;20221;-62
2022/06/26 05:46:07;;;;;;;1.67;1.58;;;24.80;95.60;;;;;;5013211;28;20198;-63
2022/06/26 05:48:56;;;;;;;1.92;1.83;;;24.80;95.60;;;;;;5007576;28;20297;-63
2022/06/26 05:51:42;;;;;;;1.50;1.50;;;24.80;95.60;;;;;;5003010;28;20297;-61
2022/06/26 05:54:27;;;;;;;2.30;2.20;;;24.90;95.60;;;;;;5030479;28;20570;-60
2022/06/26 05:57:09;;;;;;;2.65;2.47;;;24.90;95.60;;;;;;5030512;28;20272;-61
2022/06/26 05:59:59;;;;;;;2.63;2.50;;;24.90;95.60;;;;;;5015037;28;20633;-61
2022/06/26 06:02:44;;;;;;;2.85;2.65;;;24.90;95.60;;;;;;5030068;28;20209;-62
2022/06/26 06:05:14;;;;;;;2.83;2.72;;;24.90;95.60;;;;;;5011119;28;20218;-62
2022/06/26 06:07:42;;;;;;;2.80;2.70;;;24.90;95.60;;;;;;5012404;28;20732;-62
2022/06/26 06:10:11;;;;;;;2.92;2.83;;;24.90;95.60;;;;;;5012950;28;20206;-62
2022/06/26 06:12:39;;;;;;;2.50;2.40;;;24.90;95.60;;;;;;5010685;28;20225;-61
2022/06/26 06:15:08;;;;;;;2.80;2.60;;;24.90;96.00;;;;;;5012749;28;20586;-61
2022/06/26 06:17:40;;;;;;;2.83;2.72;;;24.90;95.60;;;;;;5011916;28;20218;-63
2022/06/26 06:20:11;;;;;;;3.30;3.00;;;25.00;95.70;;;;;;5011063;28;20228;-61
2022/06/26 06:22:41;;;;;;;2.60;2.50;;;25.00;95.70;;;;;;5012100;28;20593;-62
2022/06/26 06:25:10;;;;;;;2.60;2.50;;;25.00;95.60;;;;;;5013584;28;20202;-62
2022/06/26 06:27:39;;;;;;;3.20;3.00;;;25.00;95.60;;;;;;5012079;28;20710;-61
2022/06/26 06:30:11;;;;;;;2.67;2.47;;;25.10;95.80;;;;;;5012450;28;20207;-61
2022/06/26 06:32:40;;;;;;;3.25;2.97;;;25.10;95.70;;;;;;5028444;28;20201;-61
2022/06/26 06:35:13;;;;;;;3.13;2.80;;;25.10;95.70;;;;;;5015643;28;20645;-62
2022/06/26 06:37:43;;;;;;;3.22;3.03;;;25.10;95.70;;;;;;5010304;28;20309;-62
2022/06/26 06:40:13;;;;;;;3.22;2.72;;;25.20;95.80;;;;;;5027602;28;20210;-62
2022/06/26 06:42:43;;;;;;;3.95;3.05;;;25.20;95.80;;;;;;5011530;28;20205;-62
2022/06/26 06:45:14;;;;;;;2.90;2.70;;;25.20;95.80;;;;;;5010237;28;20214;-61
2022/06/26 06:48:02;;;;;;;3.15;2.72;;;25.30;95.70;;;;;;5009849;28;20829;-59
2022/06/26 06:50:39;;;;;;;3.17;2.90;;;25.40;95.60;;;;;;5028146;28;20286;-59
2022/06/26 06:53:09;;;;;;;2.67;2.53;;;25.40;95.60;;;;;;5012051;28;20551;-61
2022/06/26 06:55:36;;;;;;;2.53;2.42;;;25.40;95.50;;;;;;5010327;28;20198;-61
2022/06/26 06:58:05;;;;;;;2.35;2.25;;;25.40;95.40;;;;;;5028172;28;20261;-61
2022/06/26 07:00:34;;;;;;;3.00;2.80;;;25.50;95.30;;;;;;5011055;28;20210;-65
2022/06/26 07:03:06;;;;;;;4.22;3.17;;;25.50;95.30;;;;;;5011035;28;20234;-60
2022/06/26 07:05:34;;;;;;;3.50;3.30;;;25.60;95.30;;;;;;5026823;28;20585;-60
2022/06/26 07:08:01;;;;;;;3.22;3.03;;;25.60;95.20;;;;;;5012164;28;20341;-59
2022/06/26 07:10:29;;;;;;;3.42;3.10;;;25.60;95.20;;;;;;5029339;28;20229;-59
2022/06/26 07:12:58;;;;;;;3.15;2.95;;;25.70;95.20;;;;;;5008624;28;20704;-59
2022/06/26 07:15:26;;;;;;;3.13;2.92;;;25.70;95.20;;;;;;5021555;28;20233;-58
2022/06/26 07:17:53;;;;;;;3.00;2.75;;;25.70;95.30;;;;;;5013939;28;20223;-59
2022/06/26 07:20:20;;;;;;;3.10;2.90;;;25.80;95.30;;;;;;5028012;28;20205;-60
2022/06/26 07:22:48;;;;;;;3.25;3.05;;;25.90;95.30;;;;;;5012085;28;20210;-60
2022/06/26 07:25:29;;;;;;;3.10;2.90;;;25.90;95.20;;;;;;5013165;28;20217;-60
2022/06/26 07:28:02;;;;;;;3.13;2.92;;;25.90;95.20;;;;;;5012271;28;20640;-59
2022/06/26 07:30:32;;;;;;;2.83;2.72;;;26.00;95.20;;;;;;5011817;28;20198;-59
2022/06/26 07:33:04;;;;;;;2.60;2.40;;;26.00;95.20;;;;;;5029667;28;20197;-59
2022/06/26 07:35:32;;;;;;;2.38;2.28;;;26.10;95.20;;;;;;5009668;28;20199;-60
2022/06/26 07:38:02;;;;;;;2.85;2.65;;;26.20;95.10;;;;;;5011839;28;20218;-60
2022/06/26 07:40:32;;;;;;;7.78;2.90;;;26.20;94.90;;;;;;5011224;28;20297;-60
2022/06/26 07:43:02;;;;;;;3.50;3.08;;;26.30;94.90;;;;;;5001671;28;20194;-61
2022/06/26 07:45:34;;;;;;;3.15;2.95;;;26.30;94.70;;;;;;5011138;28;20560;-61
2022/06/26 07:48:05;;;;;;;3.60;3.05;;;26.40;94.60;;;;;;5013267;28;20220;-59
2022/06/26 07:50:35;;;;;;;3.63;3.33;;;26.40;94.60;;;;;;5029825;28;20218;-60
2022/06/26 07:53:02;;;;;;;3.90;3.60;;;26.50;94.70;;;;;;5033776;28;20511;-60
2022/06/26 07:55:31;;;;;;;3.10;2.88;;;26.50;94.60;;;;;;5032525;28;20199;-60
2022/06/26 07:57:58;;;;;;;3.75;3.45;;;26.60;94.60;;;;;;5033440;28;20260;-61
2022/06/26 08:00:26;;;;;;;3.17;2.97;;;26.60;94.60;;;;;;5032919;28;20519;-59
2022/06/26 08:02:53;;;;;;;3.78;3.58;;;26.70;94.50;;;;;;5014750;28;20264;-61
2022/06/26 08:05:20;;;;;;;3.72;3.53;;;26.70;94.10;;;;;;5031070;28;20195;-61
2022/06/26 08:07:47;;;;;;;4.07;3.38;;;26.70;93.90;;;;;;5032814;28;20264;-59
2022/06/26 08:10:14;;;;;;;4.55;3.30;;;26.80;93.90;;;;;;5030983;28;20515;-61
2022/06/26 08:12:42;;;;;;;3.13;2.85;;;26.90;93.80;;;;;;5032329;28;20277;-62
2022/06/26 08:15:10;;;;;;;3.25;3.05;;;26.90;93.80;;;;;;5013966;28;20198;-61
2022/06/26 08:17:37;;;;;;;3.20;3.00;;;26.90;93.80;;;;;;5032923;28;20749;-61
2022/06/26 08:20:05;;;;;;;4.80;3.15;;;27.00;93.80;;;;;;5031260;28;20206;-62
2022/06/26 08:22:32;;;;;;;3.50;3.30;;;27.10;93.70;;;;;;5032874;28;20209;-61
2022/06/26 08:25:00;;;;;;;3.83;3.53;;;27.10;93.60;;;;;;5021307;28;20344;-61
2022/06/26 08:27:27;;;;;;;4.00;3.70;;;27.20;93.50;;;;;;5030765;28;20231;-61
2022/06/26 08:29:55;;;;;;;3.40;3.20;;;27.30;93.50;;;;;;5030878;28;20230;-61
2022/06/26 08:32:22;;;;;;;3.60;3.40;;;27.30;93.40;;;;;;5029895;28;20195;-61
2022/06/26 08:34:50;;;;;;;3.38;3.17;;;27.40;93.20;;;;;;5027863;28;20655;-60
2022/06/26 08:37:17;;;;;;;4.28;3.13;;;27.40;93.20;;;;;;5029548;28;20288;-60
2022/06/26 08:39:44;;;;;;;3.30;3.10;;;27.50;93.30;;;;;;5031833;28;20202;-60
2022/06/26 08:42:12;;;;;;;3.67;3.38;;;27.50;93.20;;;;;;5031363;28;20214;-62
2022/06/26 08:44:43;;;;;;;3.42;3.22;;;27.60;93.00;;;;;;5031192;28;20211;-62
2022/06/26 08:47:12;;;;;;;3.80;3.55;;;27.60;93.30;;;;;;5032001;28;20195;-60
2022/06/26 08:49:41;;;;;;;3.58;3.30;;;27.70;92.90;;;;;;5031035;28;20194;-63
2022/06/26 08:52:13;;;;;;;3.63;3.33;;;27.70;92.90;;;;;;5031069;28;20203;-62
2022/06/26 08:54:40;;;;;;;3.40;3.20;;;27.80;92.90;;;;;;5026615;28;20637;-62
2022/06/26 08:57:08;;;;;;;3.90;3.60;;;27.80;92.90;;;;;;5013464;28;20519;-63
2022/06/26 08:59:35;;;;;;;3.78;3.33;;;27.90;92.80;;;;;;5031347;28;20215;-61
2022/06/26 09:02:02;;;;;;;3.58;3.38;;;27.90;92.80;;;;;;5031232;28;20195;-61
2022/06/26 09:04:30;;;;;;;3.60;3.30;;;28.00;92.70;;;;;;5030530;28;20208;-61
2022/06/26 09:06:58;;;;;;;3.42;3.22;;;28.00;92.50;;;;;;5030246;28;20194;-65
2022/06/26 09:09:27;;;;;;;3.20;3.00;;;28.10;92.50;;;;;;5028169;28;20278;-63
2022/06/26 09:11:55;;;;;;;3.42;3.22;;;28.20;92.50;;;;;;5027799;28;20205;-60
2022/06/26 09:14:24;;;;;;;2.58;2.47;;;28.30;92.40;;;;;;5028357;28;20655;-62
2022/06/26 09:16:52;;;;;;;4.78;2.80;;;28.30;92.40;;;;;;5023232;28;20198;-62
2022/06/26 09:19:21;;;;;;;3.22;3.03;;;28.30;92.30;;;;;;5031367;28;20263;-61
2022/06/26 09:21:50;;;;;;;3.30;3.13;;;28.40;92.40;;;;;;5027698;28;20205;-61
2022/06/26 09:24:18;;;;;;;3.63;3.03;;;28.40;92.50;;;;;;5031985;28;20286;-60
2022/06/26 09:26:46;;;;;;;3.65;3.15;;;28.50;92.40;;;;;;5027638;28;20292;-60
2022/06/26 09:29:18;;;;;;;3.28;3.08;;;28.60;92.10;;;;;;5032084;28;20183;-59
2022/06/26 09:31:46;;;;;;;3.00;2.85;;;28.60;91.70;;;;;;5030545;28;20280;-61
2022/06/26 09:34:21;;;;;;;2.63;2.53;;;28.70;91.40;;;;;;5030507;28;20198;-60
2022/06/26 09:36:57;;;;;;;3.10;2.90;;;28.80;91.30;;;;;;5029694;28;20557;-61
2022/06/26 09:39:25;;;;;;;3.50;3.20;;;28.80;91.30;;;;;;5031748;28;20305;-59
2022/06/26 09:41:52;;;;;;;4.18;3.63;;;28.90;90.90;;;;;;5030756;28;20274;-60
2022/06/26 09:44:20;;;;;;;3.67;3.47;;;28.90;90.60;;;;;;5031371;28;20226;-61
2022/06/26 09:46:47;;;;;;;4.38;3.08;;;28.90;90.50;;;;;;5030867;28;20237;-61
2022/06/26 09:49:15;;;;;;;3.05;2.85;;;28.90;90.40;;;;;;5030883;28;20190;-60
2022/06/26 09:51:43;;;;;;;3.45;3.25;;;29.00;90.50;;;;;;5030861;28;20213;-61
2022/06/26 09:54:12;;;;;;;3.13;2.92;;;29.00;90.50;;;;;;5031425;28;20203;-60
2022/06/26 09:56:39;;;;;;;2.88;2.55;;;29.10;90.90;;;;;;5031628;28;20206;-60
2022/06/26 09:59:08;;;;;;;3.33;3.13;;;29.10;90.00;;;;;;5031223;28;20707;-61
2022/06/26 10:07:07;;;;;;;2.55;2.45;;;29.40;88.90;;;;;;5026331;28;20239;-61
2022/06/26 10:09:36;;;;;;;2.72;2.60;;;29.40;88.50;;;;;;5028031;28;20246;-60
2022/06/26 10:12:05;;;;;;;2.60;2.40;;;29.50;88.60;;;;;;5019300;28;20209;-61
2022/06/26 10:14:36;;;;;;;2.67;2.47;;;29.60;87.90;;;;;;5016511;28;20302;-61
2022/06/26 10:17:35;;;;;;;4.60;2.72;;;29.70;86.80;;;;;;5029633;28;20202;-62
2022/06/26 10:20:06;;;;;;;4.60;2.65;;;29.70;85.60;;;;;;5029577;28;20658;-59
2022/06/26 10:22:39;;;;;;;2.78;2.58;;;29.80;85.00;;;;;;5013366;28;20203;-59
2022/06/26 10:25:09;;;;;;;3.17;2.92;;;29.80;84.80;;;;;;5026363;28;20198;-60
2022/06/26 10:27:39;;;;;;;2.70;2.60;;;29.80;84.50;;;;;;5024733;28;20234;-60
2022/06/26 10:30:11;;;;;;;4.03;2.88;;;29.90;83.70;;;;;;5025640;28;20229;-60
2022/06/26 10:32:38;;;;;;;2.70;2.60;;;30.00;82.40;;;;;;5025657;28;20194;-60
2022/06/26 10:35:06;;;;;;;2.70;2.50;;;30.00;81.40;;;;;;5025810;28;20207;-60
2022/06/26 10:37:42;;;;;;;2.70;2.60;;;30.10;80.00;;;;;;5025683;28;20633;-60
2022/06/26 10:42:52;;;;;;;2.33;2.22;;;30.10;78.50;;;;;;5026816;28;20198;-60
2022/06/26 10:43:03;;;;;;;3.00;2.40;;;30.20;77.80;;;;;;5016141;28;20730;-60
2022/06/26 10:45:32;;;;;;;2.70;2.60;;;30.20;77.20;;;;;;5026887;28;20246;-60
2022/06/26 10:48:01;;;;;;;2.95;2.72;;;30.30;77.20;;;;;;5008580;28;20746;-60
2022/06/26 10:50:32;;;;;;;3.13;2.92;;;30.30;76.80;;;;;;5025007;28;20225;-60
2022/06/26 10:53:17;;;;;;;2.40;2.30;;;30.40;76.70;;;;;;5026299;28;20662;-60
2022/06/26 10:55:47;;;;;;;2.75;2.55;;;30.40;76.20;;;;;;5026353;28;20199;-60
2022/06/26 10:58:27;;;;;;;3.17;2.97;;;30.40;76.50;;;;;;5020161;28;20210;-60
2022/06/26 11:00:56;;;;;;;2.97;2.78;;;30.40;77.10;;;;;;5026341;28;20805;-59
2022/06/26 11:03:24;;;;;;;3.38;2.70;;;30.50;76.10;;;;;;5022965;28;20928;-60
2022/06/26 11:05:56;;;;;;;3.03;2.70;;;30.50;75.10;;;;;;5024989;28;20290;-62
2022/06/26 11:08:31;;;;;;;2.50;2.40;;;30.50;75.30;;;;;;5006682;28;20207;-61
2022/06/26 11:11:05;;;;;;;2.55;2.45;;;30.50;75.60;;;;;;5025011;28;20626;-60
2022/06/26 11:13:34;;;;;;;3.13;2.95;;;30.50;76.10;;;;;;5026057;28;20601;-60
2022/06/26 11:16:01;;;;;;;3.03;2.88;;;30.60;76.00;;;;;;5025537;28;20289;-60
2022/06/26 11:18:34;;;;;;;3.70;2.78;;;30.60;75.10;;;;;;5024830;28;20249;-60
2022/06/26 11:21:02;;;;;;;2.95;2.80;;;30.70;75.00;;;;;;5024918;28;20641;-60
2022/06/26 11:23:31;;;;;;;2.70;2.60;;;30.70;75.00;;;;;;5017329;28;20202;-60
2022/06/26 11:26:00;;;;;;;3.83;3.35;;;30.60;74.10;;;;;;5024240;28;20254;-59
2022/06/26 11:28:33;;;;;;;4.20;3.22;;;30.70;73.80;;;;;;5025475;28;20190;-60
2022/06/26 11:31:01;;;;;;;3.05;2.92;;;30.70;73.90;;;;;;5026171;28;20222;-60
2022/06/26 11:33:33;;;;;;;3.15;2.80;;;30.60;73.50;;;;;;5024188;28;20257;-60
2022/06/26 11:36:06;;;;;;;2.80;2.55;;;30.50;72.50;;;;;;5007674;28;20213;-60
2022/06/26 11:38:34;;;;;;;2.47;2.25;;;30.50;71.70;;;;;;5024303;28;20225;-60
2022/06/26 11:41:03;;;;;;;3.53;2.65;;;30.50;71.40;;;;;;5025713;28;20609;-59
2022/06/26 11:43:32;;;;;;;2.13;2.03;;;30.50;70.40;;;;;;5025519;28;20194;-59
2022/06/26 11:46:00;;;;;;;2.85;2.30;;;30.50;69.50;;;;;;5018858;28;20213;-60
2022/06/26 11:48:29;;;;;;;3.65;2.63;;;30.50;69.70;;;;;;5018654;28;20195;-60
2022/06/26 11:50:58;;;;;;;2.58;2.47;;;30.60;68.20;;;;;;5018347;28;20288;-59
2022/06/26 11:53:26;;;;;;;2.35;2.25;;;30.70;68.40;;;;;;5020495;28;20273;-60
2022/06/26 11:55:55;;;;;;;3.03;2.83;;;30.70;68.20;;;;;;5025364;28;20195;-60
2022/06/26 11:58:24;;;;;;;2.80;2.60;;;30.70;68.30;;;;;;5022137;28;20203;-61
2022/06/26 12:01:04;;;;;;;2.50;2.30;;;30.70;68.50;;;;;;5025249;28;20261;-60
2022/06/26 12:03:31;;;;;;;2.20;2.10;;;30.70;68.30;;;;;;5023689;28;20619;-60
2022/06/26 12:05:58;;;;;;;2.95;2.60;;;30.60;67.90;;;;;;5025140;28;20205;-61
2022/06/26 12:08:25;;;;;;;3.25;2.95;;;30.70;67.60;;;;;;5021263;28;20725;-60
2022/06/26 12:10:55;;;;;;;2.40;2.30;;;30.70;66.60;;;;;;5022131;28;20528;-60
2022/06/26 12:13:29;;;;;;;3.00;2.50;;;30.70;66.50;;;;;;5023626;28;20206;-60
2022/06/26 12:16:05;;;;;;;2.90;2.67;;;30.80;66.10;;;;;;5020917;28;20191;-61
2022/06/26 12:18:34;;;;;;;3.25;2.40;;;30.90;65.90;;;;;;5023267;28;20211;-60
2022/06/26 12:21:01;;;;;;;3.05;2.85;;;30.90;65.70;;;;;;5028574;28;20194;-60
2022/06/26 12:23:35;;;;;;;2.65;2.50;;;31.00;64.50;;;;;;5027156;28;20203;-60
2022/06/26 12:26:07;;;;;;;2.20;2.10;;;31.00;63.40;;;;;;5026672;28;20233;-60
2022/06/26 12:28:42;;;;;;;2.30;2.20;;;31.10;63.20;;;;;;5026897;28;20663;-61
2022/06/26 12:31:11;;;;;;;2.47;2.38;;;31.10;63.20;;;;;;5022403;28;20198;-60
2022/06/26 12:33:38;;;;;;;2.63;2.53;;;31.20;62.00;;;;;;5025476;28;20198;-60
2022/06/26 12:36:06;;;;;;;2.78;2.58;;;31.30;62.00;;;;;;5023873;28;20187;-60
2022/06/26 12:38:35;;;;;;;2.53;2.40;;;31.30;62.10;;;;;;5029201;28;20210;-60
2022/06/26 12:41:02;;;;;;;2.63;2.50;;;31.30;62.70;;;;;;5025461;28;20264;-60
2022/06/26 12:43:29;;;;;;;2.47;2.38;;;31.30;62.50;;;;;;5029357;28;20201;-60
2022/06/26 12:45:57;;;;;;;2.88;2.67;;;31.30;62.80;;;;;;5030050;28;20675;-60
2022/06/26 12:48:25;;;;;;;2.47;2.38;;;31.20;62.60;;;;;;5029448;28;20276;-61
2022/06/26 12:50:52;;;;;;;2.40;2.30;;;31.10;62.30;;;;;;5032793;28;20198;-60
2022/06/26 12:53:19;;;;;;;3.00;2.47;;;31.00;62.30;;;;;;5030654;28;20381;-60
2022/06/26 12:55:46;;;;;;;2.40;2.20;;;31.00;62.50;;;;;;5032120;28;20222;-60
2022/06/26 12:58:13;;;;;;;2.60;2.40;;;31.00;62.90;;;;;;5031596;28;20209;-60
2022/06/26 13:00:40;;;;;;;2.42;2.33;;;31.10;62.20;;;;;;5030430;28;20223;-60
2022/06/26 13:03:07;;;;;;;2.65;2.35;;;31.10;61.90;;;;;;5031458;28;20686;-61
2022/06/26 13:05:36;;;;;;;2.50;2.30;;;31.10;62.00;;;;;;5030861;28;20237;-60
2022/06/26 13:08:03;;;;;;;2.47;2.28;;;31.20;62.10;;;;;;5031241;28;20282;-60